createdAt,value
2018-04-13T00:01:30.905Z,7.00
2018-04-13T00:04:01.642Z,7.10
2018-04-13T00:06:29.633Z,7.10
2018-04-13T00:08:57.805Z,7.10
2018-04-13T00:11:27.089Z,7.10
2018-04-13T00:13:59.194Z,7.10
2018-04-13T00:16:27.443Z,7.00
2018-04-13T00:18:57.901Z,7.00
2018-04-13T00:21:25.438Z,7.00
2018-04-13T00:23:53.131Z,6.90
2018-04-13T00:26:25.292Z,7.00
2018-04-13T00:28:56.449Z,7.00
2018-04-13T00:31:28.860Z,7.00
2018-04-13T00:33:56.811Z,7.00
2018-04-13T00:36:25.790Z,7.00
2018-04-13T00:38:55.631Z,7.00
2018-04-13T00:41:23.958Z,7.00
2018-04-13T00:43:53.287Z,7.00
2018-04-13T00:46:21.328Z,7.10
2018-04-13T00:48:48.913Z,7.10
2018-04-13T00:51:16.453Z,7.10
2018-04-13T00:54:25.436Z,7.10
2018-04-13T00:56:53.433Z,7.10
2018-04-13T00:59:23.202Z,7.00
2018-04-13T01:01:52.481Z,7.00
2018-04-13T01:04:20.027Z,6.90
2018-04-13T01:06:47.572Z,7.00
2018-04-13T01:09:15.143Z,7.00
2018-04-13T01:11:45.172Z,7.00
2018-04-13T01:14:12.715Z,7.00
2018-04-13T01:16:40.679Z,6.90
2018-04-13T01:19:08.229Z,6.90
2018-04-13T01:21:36.996Z,6.90
2018-04-13T01:24:05.012Z,6.90
2018-04-13T01:26:33.006Z,6.90
2018-04-13T01:29:00.683Z,6.90
2018-04-13T01:31:29.621Z,6.90
2018-04-13T01:34:01.825Z,6.80
2018-04-13T01:36:29.371Z,6.90
2018-04-13T01:39:00.496Z,6.90
2018-04-13T01:41:28.331Z,6.90
2018-04-13T01:43:55.867Z,6.90
2018-04-13T01:46:29.588Z,6.90
2018-04-13T01:48:59.880Z,6.80
2018-04-13T01:51:28.014Z,6.90
2018-04-13T01:53:56.778Z,6.80
2018-04-13T01:56:24.315Z,6.80
2018-04-13T01:59:00.685Z,6.80
2018-04-13T02:01:32.363Z,6.80
2018-04-13T02:03:59.909Z,6.80
2018-04-13T02:06:27.473Z,6.80
2018-04-13T02:08:56.101Z,6.80
2018-04-13T02:11:24.562Z,6.80
2018-04-13T02:13:54.168Z,6.80
2018-04-13T02:16:21.806Z,6.80
2018-04-13T02:18:50.399Z,6.80
2018-04-13T02:21:19.158Z,6.80
2018-04-13T02:23:47.849Z,6.80
2018-04-13T02:26:16.170Z,6.80
2018-04-13T02:28:44.861Z,6.80
2018-04-13T02:31:12.580Z,6.80
2018-04-13T02:33:43.512Z,6.70
2018-04-13T02:36:11.411Z,6.80
2018-04-13T02:38:41.248Z,6.80
2018-04-13T02:41:32.795Z,6.80
2018-04-13T02:44:00.353Z,6.80
2018-04-13T02:46:27.896Z,6.80
2018-04-13T02:48:55.688Z,6.80
2018-04-13T02:51:24.123Z,6.80
2018-04-13T02:53:51.653Z,6.80
2018-04-13T02:56:20.164Z,6.80
2018-04-13T02:58:47.706Z,6.80
2018-04-13T03:01:15.249Z,6.80
2018-04-13T03:03:43.553Z,6.80
2018-04-13T03:06:11.561Z,6.80
2018-04-13T03:08:41.114Z,6.80
2018-04-13T03:11:09.812Z,6.80
2018-04-13T03:13:37.348Z,6.80
2018-04-13T03:16:04.894Z,6.80
2018-04-13T03:18:33.582Z,6.80
2018-04-13T03:21:03.905Z,6.80
2018-04-13T03:23:31.543Z,6.80
2018-04-13T03:25:59.431Z,6.80
2018-04-13T03:28:28.877Z,6.80
2018-04-13T03:30:59.505Z,6.80
2018-04-13T03:33:28.814Z,6.80
2018-04-13T03:35:56.551Z,6.80
2018-04-13T03:38:24.279Z,6.80
2018-04-13T03:41:30.186Z,6.80
2018-04-13T03:43:57.722Z,6.80
2018-04-13T03:46:25.283Z,6.80
2018-04-13T03:48:52.833Z,6.80
2018-04-13T03:51:21.123Z,6.80
2018-04-13T03:53:52.868Z,6.80
2018-04-13T03:56:49.767Z,6.80
2018-04-13T03:59:17.309Z,6.80
2018-04-13T04:01:45.561Z,6.80
2018-04-13T04:04:14.817Z,6.80
2018-04-13T04:06:44.182Z,6.80
2018-04-13T04:09:11.976Z,6.80
2018-04-13T04:11:39.516Z,6.80
2018-04-13T04:14:08.808Z,6.90
2018-04-13T04:16:39.734Z,6.90
2018-04-13T04:19:08.637Z,6.90
2018-04-13T04:21:48.007Z,6.90
2018-04-13T04:24:31.565Z,6.90
2018-04-13T04:27:00.481Z,7.00
2018-04-13T04:29:30.067Z,6.90
2018-04-13T04:31:57.634Z,6.90
2018-04-13T04:34:28.704Z,7.00
2018-04-13T04:36:57.805Z,6.90
2018-04-13T04:39:25.372Z,6.90
2018-04-13T04:41:53.030Z,6.90
2018-04-13T04:44:21.731Z,7.00
2018-04-13T04:46:49.282Z,7.00
2018-04-13T04:49:16.841Z,6.90
2018-04-13T04:51:45.507Z,6.90
2018-04-13T04:54:13.058Z,6.90
2018-04-13T04:56:43.701Z,7.00
2018-04-13T04:59:11.515Z,7.00
2018-04-13T05:01:39.055Z,6.90
2018-04-13T05:04:06.968Z,6.90
2018-04-13T05:06:35.461Z,6.90
2018-04-13T05:09:03.311Z,6.90
2018-04-13T05:11:32.862Z,6.80
2018-04-13T05:14:05.199Z,6.80
2018-04-13T05:16:38.514Z,6.80
2018-04-13T05:19:13.673Z,6.80
2018-04-13T05:21:45.058Z,6.90
2018-04-13T05:24:14.566Z,6.90
2018-04-13T05:26:42.121Z,6.90
2018-04-13T05:29:10.432Z,6.90
2018-04-13T05:31:38.221Z,7.00
2018-04-13T05:34:05.763Z,7.10
2018-04-13T05:36:33.362Z,7.00
2018-04-13T05:39:01.724Z,7.00
2018-04-13T05:41:29.999Z,7.00
2018-04-13T05:44:04.975Z,7.00
2018-04-13T05:46:33.059Z,7.00
2018-04-13T05:49:01.562Z,7.10
2018-04-13T05:51:34.432Z,7.10
2018-04-13T05:54:07.193Z,7.20
2018-04-13T05:56:34.748Z,7.10
2018-04-13T05:59:23.708Z,7.10
2018-04-13T06:01:55.059Z,7.10
2018-04-13T06:04:24.277Z,7.20
2018-04-13T06:06:51.835Z,7.10
2018-04-13T06:09:19.375Z,7.10
2018-04-13T06:11:49.333Z,7.10
2018-04-13T06:14:37.865Z,7.10
2018-04-13T06:17:05.894Z,7.10
2018-04-13T06:19:36.076Z,7.10
2018-04-13T06:22:04.767Z,7.20
2018-04-13T06:24:32.349Z,7.20
2018-04-13T06:27:00.210Z,7.20
2018-04-13T06:29:29.179Z,7.20
2018-04-13T06:31:57.349Z,7.30
2018-04-13T06:34:24.888Z,7.30
2018-04-13T06:36:55.567Z,7.40
2018-04-13T06:39:28.243Z,7.40
2018-04-13T06:41:56.580Z,7.40
2018-04-13T06:44:32.889Z,7.40
2018-04-13T06:47:01.271Z,7.30
2018-04-13T06:49:28.815Z,7.40
2018-04-13T06:51:56.350Z,7.50
2018-04-13T06:54:27.219Z,7.50
2018-04-13T06:56:54.774Z,7.40
2018-04-13T06:59:22.799Z,7.50
2018-04-13T07:01:57.311Z,7.50
2018-04-13T07:04:27.302Z,7.60
2018-04-13T07:06:57.397Z,7.60
2018-04-13T07:09:25.004Z,7.70
2018-04-13T07:11:52.903Z,7.70
2018-04-13T07:14:21.363Z,7.80
2018-04-13T07:17:11.280Z,7.80
2018-04-13T07:19:38.838Z,7.90
2018-04-13T07:22:06.765Z,8.00
2018-04-13T07:24:34.320Z,8.00
2018-04-13T07:27:03.873Z,8.10
2018-04-13T07:29:31.985Z,8.10
2018-04-13T07:31:59.929Z,8.20
2018-04-13T07:34:27.661Z,8.20
2018-04-13T07:36:55.213Z,8.20
2018-04-13T07:39:22.797Z,8.30
2018-04-13T07:41:52.493Z,8.30
2018-04-13T07:44:22.398Z,8.40
2018-04-13T07:46:50.407Z,8.50
2018-04-13T07:49:17.940Z,8.50
2018-04-13T07:51:45.482Z,8.60
2018-04-13T07:54:14.747Z,8.80
2018-04-13T07:56:48.242Z,8.80
2018-04-13T07:59:15.799Z,8.90
2018-04-13T08:01:45.012Z,9.00
2018-04-13T08:04:13.399Z,9.20
2018-04-13T08:06:40.939Z,9.30
2018-04-13T08:09:11.422Z,9.40
2018-04-13T08:11:41.818Z,9.50
2018-04-13T08:14:09.544Z,9.50
2018-04-13T08:16:37.239Z,9.40
2018-04-13T08:19:06.692Z,9.40
2018-04-13T08:21:34.244Z,9.30
2018-04-13T08:24:01.793Z,9.40
2018-04-13T08:26:30.174Z,9.40
2018-04-13T08:28:58.695Z,9.40
2018-04-13T08:31:28.989Z,9.30
2018-04-13T08:33:56.535Z,9.30
2018-04-13T08:36:24.099Z,9.30
2018-04-13T08:38:53.454Z,9.20
2018-04-13T08:41:24.382Z,9.20
2018-04-13T08:43:52.270Z,9.20
2018-04-13T08:46:20.066Z,9.20
2018-04-13T08:48:48.268Z,9.20
2018-04-13T08:51:16.971Z,9.20
2018-04-13T08:53:45.772Z,9.20
2018-04-13T08:56:13.595Z,9.20
2018-04-13T08:58:41.131Z,9.20
2018-04-13T09:01:09.838Z,9.20
2018-04-13T09:03:37.461Z,9.30
2018-04-13T09:06:04.994Z,9.30
2018-04-13T09:08:37.057Z,9.30
2018-04-13T09:11:04.603Z,9.40
2018-04-13T09:13:33.181Z,9.30
2018-04-13T09:16:03.202Z,9.30
2018-04-13T09:18:30.735Z,9.30
2018-04-13T09:20:58.463Z,9.40
2018-04-13T09:23:26.782Z,9.30
2018-04-13T09:26:00.424Z,9.40
2018-04-13T09:28:28.024Z,9.40
2018-04-13T09:30:55.596Z,9.40
2018-04-13T09:33:44.159Z,9.40
2018-04-13T09:36:12.596Z,9.60
2018-04-13T09:38:41.234Z,9.60
2018-04-13T09:41:08.763Z,9.60
2018-04-13T09:43:39.613Z,9.60
2018-04-13T09:46:10.054Z,9.70
2018-04-13T09:48:38.018Z,9.70
2018-04-13T09:51:05.570Z,9.90
2018-04-13T09:53:33.109Z,9.90
2018-04-13T09:56:06.960Z,9.70
2018-04-13T09:58:36.793Z,9.60
2018-04-13T10:01:04.735Z,9.70
2018-04-13T10:03:39.086Z,9.80
2018-04-13T10:06:07.281Z,9.90
2018-04-13T10:08:39.784Z,10.10
2018-04-13T10:11:07.324Z,10.30
2018-04-13T10:13:37.153Z,10.20
2018-04-13T10:16:05.000Z,10.20
2018-04-13T10:18:32.883Z,10.20
2018-04-13T10:21:02.481Z,10.20
2018-04-13T10:23:30.841Z,10.20
2018-04-13T10:25:58.403Z,10.30
2018-04-13T10:28:32.460Z,10.40
2018-04-13T10:31:00.365Z,10.40
2018-04-13T10:33:50.063Z,10.50
2018-04-13T10:36:17.631Z,10.50
2018-04-13T10:38:45.182Z,10.50
2018-04-13T10:41:15.250Z,10.50
2018-04-13T10:43:42.984Z,10.50
2018-04-13T10:46:10.962Z,10.50
2018-04-13T10:48:39.528Z,10.50
2018-04-13T10:51:08.139Z,10.40
2018-04-13T10:53:35.692Z,10.40
2018-04-13T10:56:03.227Z,10.60
2018-04-13T10:58:31.557Z,10.90
2018-04-13T11:00:59.099Z,10.90
2018-04-13T11:03:26.869Z,11.20
2018-04-13T11:05:55.432Z,11.40
2018-04-13T11:08:22.981Z,11.60
2018-04-13T11:10:55.545Z,11.70
2018-04-13T11:13:26.037Z,11.70
2018-04-13T11:15:54.104Z,11.90
2018-04-13T11:18:38.613Z,11.90
2018-04-13T11:21:07.137Z,12.00
2018-04-13T11:23:35.252Z,11.90
2018-04-13T11:26:02.823Z,11.80
2018-04-13T11:28:31.127Z,11.60
2018-04-13T11:30:58.708Z,11.60
2018-04-13T11:33:26.250Z,11.50
2018-04-13T11:48:50.059Z,11.00
2018-04-13T11:51:18.145Z,11.00
2018-04-13T11:53:45.687Z,11.00
2018-04-13T11:56:13.249Z,11.20
2018-04-13T11:58:44.590Z,11.40
2018-04-13T12:01:13.780Z,11.60
2018-04-13T12:03:42.389Z,11.70
2018-04-13T12:06:10.372Z,11.90
2018-04-13T12:08:38.219Z,11.90
2018-04-13T12:11:09.540Z,11.90
2018-04-13T12:13:37.774Z,11.90
2018-04-13T12:16:05.323Z,11.90
2018-04-13T12:18:33.026Z,11.90
2018-04-13T12:21:00.583Z,11.90
2018-04-13T12:23:28.127Z,11.90
2018-04-13T12:25:55.682Z,11.90
2018-04-13T12:28:28.136Z,12.00
2018-04-13T12:31:00.578Z,12.20
2018-04-13T12:33:28.134Z,12.20
2018-04-13T12:36:19.570Z,12.10
2018-04-13T12:38:48.866Z,12.10
2018-04-13T12:41:16.971Z,12.10
2018-04-13T12:43:44.512Z,12.20
2018-04-13T12:46:12.821Z,12.20
2018-04-13T12:48:46.037Z,12.20
2018-04-13T12:51:14.352Z,12.50
2018-04-13T12:53:42.700Z,13.00
2018-04-13T12:56:10.768Z,13.00
2018-04-13T12:58:38.647Z,13.50
2018-04-13T13:01:06.192Z,13.90
2018-04-13T13:03:33.734Z,14.10
2018-04-13T13:06:01.623Z,14.10
2018-04-13T13:08:31.277Z,14.30
2018-04-13T13:11:00.974Z,14.50
2018-04-13T13:13:29.290Z,14.60
2018-04-13T13:15:56.835Z,14.60
2018-04-13T13:18:25.392Z,14.80
2018-04-13T13:20:56.249Z,14.60
2018-04-13T13:23:24.825Z,14.80
2018-04-13T13:25:52.535Z,14.80
2018-04-13T13:28:20.077Z,15.20
2018-04-13T13:30:50.647Z,15.20
2018-04-13T13:33:18.189Z,15.20
2018-04-13T13:35:46.275Z,15.40
2018-04-13T13:38:15.877Z,15.30
2018-04-13T13:40:46.484Z,15.20
2018-04-13T13:43:17.277Z,15.00
2018-04-13T13:45:45.892Z,15.10
2018-04-13T13:48:13.437Z,15.00
2018-04-13T13:50:41.370Z,14.90
2018-04-13T13:53:13.015Z,14.80
2018-04-13T13:55:40.566Z,14.70
2018-04-13T13:58:08.755Z,14.60
2018-04-13T14:00:36.292Z,14.60
2018-04-13T14:03:03.853Z,14.60
2018-04-13T14:05:31.921Z,14.30
2018-04-13T14:07:59.491Z,14.20
2018-04-13T14:10:27.597Z,14.10
2018-04-13T14:12:58.067Z,14.10
2018-04-13T14:15:26.304Z,14.10
2018-04-13T14:18:06.707Z,14.10
2018-04-13T14:20:36.249Z,14.00
2018-04-13T14:23:24.717Z,13.90
2018-04-13T14:25:53.124Z,13.90
2018-04-13T14:28:21.972Z,13.90
2018-04-13T14:30:49.476Z,13.70
2018-04-13T14:33:17.806Z,13.80
2018-04-13T14:35:47.805Z,13.80
2018-04-13T14:38:23.313Z,14.00
2018-04-13T14:40:53.403Z,14.10
2018-04-13T14:43:21.895Z,14.30
2018-04-13T14:45:49.457Z,14.40
2018-04-13T14:48:17.047Z,14.40
2018-04-13T14:50:46.317Z,14.50
2018-04-13T14:53:15.389Z,14.50
2018-04-13T14:55:42.980Z,14.50
2018-04-13T14:58:13.147Z,14.60
2018-04-13T15:00:40.794Z,14.50
2018-04-13T15:03:08.343Z,14.40
2018-04-13T15:05:35.879Z,14.30
2018-04-13T15:08:06.215Z,14.10
2018-04-13T15:10:39.245Z,14.10
2018-04-13T15:13:09.563Z,13.90
2018-04-13T15:15:37.096Z,13.80
2018-04-13T15:18:06.225Z,13.70
2018-04-13T15:20:35.264Z,13.70
2018-04-13T15:23:03.262Z,13.70
2018-04-13T15:25:31.304Z,13.70
2018-04-13T15:27:58.843Z,13.70
2018-04-13T15:30:27.799Z,13.70
2018-04-13T15:32:55.617Z,13.60
2018-04-13T15:35:23.173Z,13.60
2018-04-13T15:37:51.566Z,13.50
2018-04-13T15:40:19.223Z,13.50
2018-04-13T15:42:50.615Z,13.40
2018-04-13T15:45:23.527Z,13.30
2018-04-13T15:47:51.089Z,13.30
2018-04-13T15:50:18.983Z,13.20
2018-04-13T15:52:47.674Z,13.10
2018-04-13T15:55:15.227Z,13.10
2018-04-13T15:57:43.499Z,13.00
2018-04-13T16:00:13.342Z,12.90
2018-04-13T16:02:41.204Z,12.70
2018-04-13T16:05:09.555Z,12.50
2018-04-13T16:08:06.743Z,12.50
2018-04-13T16:10:34.808Z,12.40
2018-04-13T16:13:02.964Z,12.30
2018-04-13T16:15:31.282Z,12.30
2018-04-13T16:17:58.826Z,12.30
2018-04-13T16:20:31.905Z,12.30
2018-04-13T16:23:00.891Z,12.30
2018-04-13T16:25:28.450Z,12.30
2018-04-13T16:27:56.024Z,12.40
2018-04-13T16:30:26.769Z,12.40
2018-04-13T16:32:57.607Z,12.40
2018-04-13T16:35:25.160Z,12.50
2018-04-13T16:37:53.522Z,12.40
2018-04-13T16:40:21.079Z,12.40
2018-04-13T16:42:52.456Z,12.40
2018-04-13T16:45:21.002Z,12.30
2018-04-13T16:47:48.558Z,12.30
2018-04-13T16:50:16.968Z,12.30
2018-04-13T16:52:49.497Z,12.30
2018-04-13T16:55:19.836Z,12.30
2018-04-13T16:57:47.393Z,12.30
2018-04-13T17:00:17.903Z,12.50
2018-04-13T17:02:48.305Z,12.40
2018-04-13T17:05:20.295Z,12.50
2018-04-13T17:07:49.163Z,12.60
2018-04-13T17:10:16.688Z,12.60
2018-04-13T17:12:44.317Z,12.50
2018-04-13T17:15:11.882Z,12.40
2018-04-13T17:17:42.225Z,12.30
2018-04-13T17:20:09.805Z,12.30
2018-04-13T17:22:37.513Z,12.20
2018-04-13T17:25:05.481Z,12.30
2018-04-13T17:27:33.654Z,12.20
2018-04-13T17:30:03.734Z,12.20
2018-04-13T17:32:32.300Z,12.10
2018-04-13T17:35:00.530Z,11.90
2018-04-13T17:37:28.663Z,11.90
2018-04-13T17:39:56.937Z,11.80
2018-04-13T17:42:24.485Z,11.70
2018-04-13T17:44:52.038Z,11.60
2018-04-13T17:47:20.578Z,11.50
2018-04-13T17:49:50.892Z,11.50
2018-04-13T17:52:18.447Z,11.50
2018-04-13T17:54:46.221Z,11.40
2018-04-13T17:57:13.767Z,11.30
2018-04-13T17:59:48.007Z,11.30
2018-04-13T18:02:15.558Z,11.20
2018-04-13T18:04:44.499Z,11.10
2018-04-13T18:07:13.760Z,11.10
2018-04-13T18:09:42.177Z,10.90
2018-04-13T18:12:12.756Z,10.90
2018-04-13T18:14:40.304Z,10.80
2018-04-13T18:17:07.844Z,10.80
2018-04-13T18:19:35.398Z,10.80
2018-04-13T18:22:03.754Z,10.80
2018-04-13T18:24:31.447Z,10.80
2018-04-13T18:26:59.463Z,10.70
2018-04-13T18:29:28.047Z,10.60
2018-04-13T18:31:55.607Z,10.50
2018-04-13T18:34:23.483Z,10.50
2018-04-13T18:36:51.787Z,10.40
2018-04-13T18:39:25.466Z,10.40
2018-04-13T18:41:53.806Z,10.40
2018-04-13T18:44:21.336Z,10.40
2018-04-13T18:46:49.115Z,10.40
2018-04-13T18:49:17.832Z,10.40
2018-04-13T18:51:45.381Z,10.30
2018-04-13T18:54:14.445Z,10.30
2018-04-13T18:56:42.047Z,10.30
2018-04-13T18:59:10.375Z,10.30
2018-04-13T19:01:39.297Z,10.30
2018-04-13T19:04:08.100Z,10.30
2018-04-13T19:06:36.303Z,10.30
2018-04-13T19:09:06.313Z,10.30
2018-04-13T19:11:36.297Z,10.30
2018-04-13T19:14:04.070Z,10.40
2018-04-13T19:16:33.904Z,10.40
2018-04-13T19:19:02.214Z,10.40
2018-04-13T19:21:30.102Z,10.40
2018-04-13T19:23:57.653Z,10.40
2018-04-13T19:26:26.081Z,10.40
2018-04-13T19:28:57.004Z,10.30
2018-04-13T19:31:27.921Z,10.30
2018-04-13T19:33:55.862Z,10.40
2018-04-13T19:36:23.475Z,10.30
2018-04-13T19:38:55.493Z,10.30
2018-04-13T19:41:25.426Z,10.20
2018-04-13T19:43:54.428Z,10.20
2018-04-13T19:46:22.486Z,10.10
2018-04-13T19:48:50.385Z,10.10
2018-04-13T19:51:23.263Z,10.00
2018-04-13T19:54:00.629Z,10.00
2018-04-13T19:56:32.482Z,9.90
2018-04-13T19:59:02.184Z,9.90
2018-04-13T20:01:29.966Z,9.90
2018-04-13T20:03:57.519Z,9.80
2018-04-13T20:06:25.841Z,9.70
2018-04-13T20:08:55.608Z,9.70
2018-04-13T20:11:23.167Z,9.70
2018-04-13T20:13:51.219Z,9.70
2018-04-13T20:16:25.273Z,9.60
2018-04-13T20:18:53.628Z,9.50
2018-04-13T20:21:21.302Z,9.50
2018-04-13T20:23:48.870Z,9.40
2018-04-13T20:26:18.179Z,9.20
2018-04-13T20:28:46.034Z,9.10
2018-04-13T20:31:18.921Z,9.00
2018-04-13T20:33:50.902Z,8.80
2018-04-13T20:36:19.952Z,8.80
2018-04-13T20:38:47.625Z,8.70
2018-04-13T20:41:17.056Z,8.60
2018-04-13T20:43:47.966Z,8.40
2018-04-13T20:46:19.293Z,8.20
2018-04-13T20:48:52.416Z,8.20
2018-04-13T20:51:21.299Z,8.00
2018-04-13T20:53:50.198Z,7.90
2018-04-13T20:56:17.757Z,7.80
2018-04-13T20:58:47.312Z,7.80
2018-04-13T21:01:18.009Z,7.70
2018-04-13T21:03:46.262Z,7.60
2018-04-13T21:06:14.412Z,7.70
2018-04-13T21:08:42.659Z,7.60
2018-04-13T21:11:12.019Z,7.50
2018-04-13T21:13:39.930Z,7.40
2018-04-13T21:16:09.971Z,7.20
2018-04-13T21:18:38.226Z,7.20
2018-04-13T21:21:07.070Z,7.30
2018-04-13T21:23:34.610Z,7.20
2018-04-13T21:26:02.205Z,7.20
2018-04-13T21:28:29.757Z,7.20
2018-04-13T21:31:01.823Z,7.20
2018-04-13T21:33:35.111Z,7.10
2018-04-13T21:36:02.680Z,7.00
2018-04-13T21:38:30.235Z,7.00
2018-04-13T21:40:58.046Z,7.00
2018-04-13T21:43:28.562Z,6.90
2018-04-13T21:45:58.295Z,6.90
2018-04-13T21:48:27.800Z,6.80
2018-04-13T21:51:02.559Z,6.90
2018-04-13T21:53:31.573Z,6.90
2018-04-13T21:55:59.461Z,6.90
2018-04-13T21:58:27.605Z,7.00
2018-04-13T22:00:57.165Z,6.90
2018-04-13T22:03:24.724Z,6.80
2018-04-13T22:05:59.914Z,6.80
2018-04-13T22:08:28.065Z,6.80
2018-04-13T22:10:55.933Z,6.80
2018-04-13T22:13:32.155Z,6.90
2018-04-13T22:16:00.386Z,6.90
2018-04-13T22:18:30.573Z,6.90
2018-04-13T22:20:58.179Z,7.00
2018-04-13T22:23:25.727Z,7.10
2018-04-13T22:25:53.746Z,7.10
2018-04-13T22:28:21.321Z,7.10
2018-04-13T22:30:49.856Z,7.10
2018-04-13T22:33:18.753Z,7.10
2018-04-13T22:35:50.148Z,7.10
2018-04-13T22:38:18.865Z,7.10
2018-04-13T22:40:46.875Z,7.10
2018-04-13T22:43:14.572Z,7.00
2018-04-13T22:45:47.956Z,6.90
2018-04-13T22:48:20.164Z,6.80
2018-04-13T22:50:48.308Z,6.80
2018-04-13T22:53:15.850Z,6.70
2018-04-13T22:55:43.412Z,6.60
2018-04-13T22:58:14.055Z,6.50
2018-04-13T23:00:42.573Z,6.40
2018-04-13T23:03:11.886Z,6.30
2018-04-13T23:05:40.122Z,6.30
2018-04-13T23:08:10.689Z,6.30
2018-04-13T23:10:38.925Z,6.30
2018-04-13T23:13:12.091Z,6.40
2018-04-13T23:15:40.453Z,6.40
2018-04-13T23:18:09.925Z,6.40
2018-04-13T23:20:42.932Z,6.50
2018-04-13T23:23:17.916Z,6.50
2018-04-13T23:25:51.917Z,6.50
2018-04-13T23:28:26.517Z,6.60
2018-04-13T23:30:54.712Z,6.60
2018-04-13T23:33:23.424Z,6.80
2018-04-13T23:35:52.201Z,6.80
2018-04-13T23:38:19.748Z,6.90
2018-04-13T23:40:47.280Z,7.00
2018-04-13T23:43:15.598Z,7.10
2018-04-13T23:45:43.443Z,7.10
2018-04-13T23:48:13.444Z,7.20
2018-04-13T23:50:42.018Z,7.20
2018-04-13T23:53:09.562Z,7.20
2018-04-13T23:55:38.546Z,7.30
2018-04-13T23:58:08.068Z,7.30
